createdAt,value
2022-08-07T00:00:40.147Z,62.46
2022-08-07T00:03:08.793Z,61.40
2022-08-07T00:05:36.294Z,60.12
2022-08-07T00:08:04.926Z,59.07
2022-08-07T00:10:31.919Z,58.05
2022-08-07T00:13:09.637Z,56.82
2022-08-07T00:15:51.369Z,55.72
2022-08-07T00:18:24.609Z,54.83
2022-08-07T00:20:56.799Z,55.11
2022-08-07T00:23:24.298Z,55.38
2022-08-07T00:26:00.276Z,55.11
2022-08-07T00:28:33.619Z,55.68
2022-08-07T00:31:06.214Z,54.57
2022-08-07T00:33:40.312Z,54.22
2022-08-07T00:36:08.328Z,54.13
2022-08-07T00:38:36.739Z,54.41
2022-08-07T00:41:10.118Z,53.94
2022-08-07T00:44:01.924Z,53.91
2022-08-07T00:46:28.071Z,53.41
2022-08-07T00:48:54.558Z,53.45
2022-08-07T00:51:21.633Z,53.47
2022-08-07T00:53:50.786Z,53.45
2022-08-07T00:56:22.924Z,53.42
2022-08-07T00:58:49.693Z,53.67
2022-08-07T01:01:18.503Z,53.12
2022-08-07T01:03:56.379Z,53.34
2022-08-07T01:06:28.058Z,53.65
2022-08-07T01:08:55.668Z,53.90
2022-08-07T01:12:09.100Z,54.22
2022-08-07T01:14:09.772Z,54.45
2022-08-07T01:16:37.129Z,54.46
2022-08-07T01:19:18.525Z,53.97
2022-08-07T01:21:48.036Z,54.17
2022-08-07T01:24:18.773Z,54.43
2022-08-07T01:26:52.022Z,54.48
2022-08-07T01:29:19.647Z,55.10
2022-08-07T01:31:48.262Z,55.20
2022-08-07T01:34:15.633Z,54.62
2022-08-07T01:36:44.129Z,54.74
2022-08-07T01:39:11.276Z,53.74
2022-08-07T01:41:40.878Z,52.76
2022-08-07T01:44:26.122Z,52.95
2022-08-07T01:46:53.168Z,52.88
2022-08-07T01:49:21.513Z,51.87
2022-08-07T01:52:03.912Z,52.20
2022-08-07T01:54:36.967Z,52.49
2022-08-07T01:57:24.744Z,52.15
2022-08-07T01:59:57.456Z,52.34
2022-08-07T02:02:33.011Z,52.36
2022-08-07T02:05:47.751Z,51.99
2022-08-07T02:08:17.263Z,51.84
2022-08-07T02:10:55.036Z,52.41
2022-08-07T02:13:27.586Z,52.55
2022-08-07T02:16:11.998Z,52.26
2022-08-07T02:18:46.811Z,52.22
2022-08-07T02:21:16.362Z,51.87
2022-08-07T02:23:44.978Z,51.60
2022-08-07T02:26:33.960Z,52.33
2022-08-07T02:29:02.290Z,51.75
2022-08-07T02:31:29.636Z,52.01
2022-08-07T02:34:02.956Z,52.05
2022-08-07T02:36:33.883Z,52.07
2022-08-07T02:39:16.615Z,52.27
2022-08-07T02:41:50.530Z,52.02
2022-08-07T02:44:18.258Z,50.80
2022-08-07T02:46:52.718Z,51.27
2022-08-07T02:49:32.796Z,51.45
2022-08-07T02:52:12.987Z,51.34
2022-08-07T02:54:42.782Z,52.27
2022-08-07T02:57:14.255Z,52.14
2022-08-07T03:00:00.798Z,52.48
2022-08-07T03:02:28.243Z,52.38
2022-08-07T03:04:56.357Z,52.52
2022-08-07T03:07:58.991Z,52.37
2022-08-07T03:10:11.805Z,52.43
2022-08-07T03:12:41.617Z,52.47
2022-08-07T03:15:09.327Z,52.32
2022-08-07T03:17:53.640Z,52.42
2022-08-07T03:20:21.776Z,52.69
2022-08-07T03:22:50.570Z,52.63
2022-08-07T03:25:20.935Z,52.96
2022-08-07T03:28:08.797Z,52.96
2022-08-07T03:30:36.583Z,53.19
2022-08-07T03:33:07.955Z,53.71
2022-08-07T03:35:43.494Z,53.45
2022-08-07T03:38:17.893Z,53.67
2022-08-07T03:40:54.046Z,54.31
2022-08-07T03:43:26.658Z,54.09
2022-08-07T03:45:59.614Z,54.67
2022-08-07T03:48:26.994Z,54.52
2022-08-07T03:50:58.001Z,54.92
2022-08-07T03:53:50.076Z,54.44
2022-08-07T03:56:14.400Z,55.59
2022-08-07T03:59:10.156Z,55.21
2022-08-07T04:01:30.029Z,55.27
2022-08-07T04:03:59.750Z,55.33
2022-08-07T04:06:36.125Z,56.16
2022-08-07T04:09:05.646Z,56.38
2022-08-07T04:12:26.214Z,56.26
2022-08-07T04:14:38.715Z,55.95
2022-08-07T04:17:20.376Z,56.86
2022-08-07T04:19:54.917Z,57.15
2022-08-07T04:22:27.657Z,57.02
2022-08-07T04:24:58.189Z,56.48
2022-08-07T04:27:26.642Z,56.66
2022-08-07T04:30:02.113Z,56.46
2022-08-07T04:32:34.717Z,55.91
2022-08-07T04:35:07.111Z,56.55
2022-08-07T04:38:01.072Z,55.40
2022-08-07T04:40:22.693Z,55.82
2022-08-07T04:43:01.202Z,56.36
2022-08-07T04:45:57.609Z,54.98
2022-08-07T04:48:21.070Z,55.55
2022-08-07T04:51:02.280Z,56.04
2022-08-07T04:54:01.568Z,55.24
2022-08-07T04:58:10.971Z,54.73
2022-08-07T05:00:11.430Z,55.43
2022-08-07T05:02:44.593Z,54.73
2022-08-07T05:05:52.661Z,54.92
2022-08-07T05:09:00.147Z,55.85
2022-08-07T05:11:56.778Z,55.13
2022-08-07T05:14:55.035Z,56.06
2022-08-07T05:17:52.994Z,55.67
2022-08-07T05:20:17.845Z,55.27
2022-08-07T05:22:46.465Z,54.60
2022-08-07T05:25:26.296Z,54.89
2022-08-07T05:28:20.874Z,54.55
2022-08-07T05:30:52.476Z,54.15
2022-08-07T05:33:20.666Z,54.56
2022-08-07T05:35:50.651Z,54.91
2022-08-07T05:38:59.383Z,53.54
2022-08-07T05:41:12.426Z,52.67
2022-08-07T05:44:06.743Z,53.28
2022-08-07T05:46:30.977Z,52.70
2022-08-07T05:48:59.520Z,50.99
2022-08-07T05:51:26.344Z,51.48
2022-08-07T05:54:13.308Z,49.90
2022-08-07T05:56:47.300Z,48.87
2022-08-07T05:59:19.522Z,47.65
2022-08-07T06:01:49.249Z,47.67
2022-08-07T06:04:19.550Z,47.81
2022-08-07T06:06:47.569Z,47.80
2022-08-07T06:09:16.846Z,48.17
2022-08-07T06:11:44.098Z,46.75
2022-08-07T06:14:21.270Z,47.03
2022-08-07T06:16:56.301Z,46.27
2022-08-07T06:19:52.253Z,44.42
2022-08-07T06:22:22.630Z,44.65
2022-08-07T06:24:58.531Z,43.63
2022-08-07T06:27:59.926Z,42.86
2022-08-07T06:30:31.926Z,42.57
2022-08-07T06:33:01.998Z,41.93
2022-08-07T06:35:45.641Z,42.06
2022-08-07T06:38:19.859Z,41.97
2022-08-07T06:40:50.929Z,42.45
2022-08-07T06:43:23.642Z,41.43
2022-08-07T06:45:50.841Z,40.80
2022-08-07T06:48:25.075Z,40.38
2022-08-07T06:50:53.139Z,39.74
2022-08-07T06:55:30.027Z,38.72
2022-08-07T06:56:15.253Z,37.94
2022-08-07T07:00:14.775Z,38.07
2022-08-07T07:01:33.287Z,37.99
2022-08-07T07:04:32.138Z,37.64
2022-08-07T07:07:01.113Z,37.62
2022-08-07T07:09:31.222Z,37.31
2022-08-07T07:12:16.576Z,37.66
2022-08-07T07:14:58.124Z,35.92
2022-08-07T07:17:50.600Z,35.89
2022-08-07T07:20:29.645Z,35.45
2022-08-07T07:24:08.527Z,34.64
2022-08-07T07:26:35.896Z,34.31
2022-08-07T07:29:38.464Z,34.73
2022-08-07T07:31:44.510Z,33.72
2022-08-07T07:34:16.950Z,32.85
2022-08-07T07:36:47.987Z,33.14
2022-08-07T07:39:22.609Z,34.49
2022-08-07T07:42:13.250Z,34.20
2022-08-07T07:44:41.993Z,33.62
2022-08-07T07:47:22.965Z,33.54
2022-08-07T07:50:36.106Z,33.00
2022-08-07T07:52:41.004Z,32.00
2022-08-07T07:55:10.952Z,30.42
2022-08-07T07:57:51.882Z,31.06
2022-08-07T08:00:29.696Z,31.85
2022-08-07T08:03:08.276Z,31.36
2022-08-07T08:05:51.156Z,32.95
2022-08-07T08:08:35.417Z,32.48
2022-08-07T08:11:09.321Z,29.70
2022-08-07T08:13:54.549Z,31.04
2022-08-07T08:18:36.530Z,31.80
2022-08-07T08:20:18.886Z,29.94
2022-08-07T08:22:32.558Z,29.64
2022-08-07T08:25:33.024Z,28.92
2022-08-07T08:28:11.944Z,30.09
2022-08-07T08:30:51.471Z,29.76
2022-08-07T08:33:28.880Z,30.52
2022-08-07T08:36:01.619Z,28.20
2022-08-07T08:38:40.488Z,29.00
2022-08-07T08:41:57.674Z,29.65
2022-08-07T08:44:57.562Z,29.08
2022-08-07T08:47:52.087Z,28.30
2022-08-07T08:50:35.285Z,29.21
2022-08-07T08:53:06.285Z,29.25
2022-08-07T08:55:55.556Z,31.14
2022-08-07T08:58:58.047Z,31.44
2022-08-07T09:01:50.350Z,30.64
2022-08-07T09:04:36.753Z,28.98
2022-08-07T09:07:16.917Z,26.38
2022-08-07T09:09:59.957Z,27.29
2022-08-07T09:12:53.704Z,26.86
2022-08-07T09:16:24.533Z,24.24
2022-08-07T09:19:51.504Z,25.01
2022-08-07T09:24:28.666Z,23.84
2022-08-07T09:25:17.234Z,25.94
2022-08-07T09:28:05.046Z,28.40
2022-08-07T09:30:52.875Z,25.88
2022-08-07T09:33:58.021Z,27.81
2022-08-07T09:36:35.725Z,28.42
2022-08-07T09:39:53.144Z,26.51
2022-08-07T09:42:33.066Z,25.59
2022-08-07T09:47:20.398Z,23.01
2022-08-07T09:48:55.983Z,25.81
2022-08-07T09:52:16.699Z,24.95
2022-08-07T09:54:46.758Z,23.31
2022-08-07T09:57:31.647Z,24.19
2022-08-07T10:00:08.640Z,24.16
2022-08-07T10:04:06.373Z,24.00
2022-08-07T10:06:24.501Z,26.80
2022-08-07T10:09:15.356Z,28.68
2022-08-07T10:12:18.183Z,32.18
2022-08-07T10:15:18.560Z,33.04
2022-08-07T10:18:02.520Z,32.45
2022-08-07T10:21:00.624Z,32.91
2022-08-07T10:24:06.582Z,32.51
2022-08-07T10:26:33.347Z,32.95
2022-08-07T10:29:25.654Z,31.90
2022-08-07T10:32:31.597Z,32.24
2022-08-07T10:35:55.783Z,31.42
2022-08-07T10:38:49.017Z,29.93
2022-08-07T10:41:47.070Z,29.73
2022-08-07T10:44:52.450Z,31.49
2022-08-07T10:47:53.906Z,32.38
2022-08-07T10:50:36.497Z,31.60
2022-08-07T10:53:44.551Z,33.23
2022-08-07T10:56:32.916Z,32.57
2022-08-07T10:59:45.349Z,30.43
2022-08-07T11:02:33.986Z,29.79
2022-08-07T11:05:35.511Z,26.47
2022-08-07T11:08:45.783Z,24.66
2022-08-07T11:11:20.234Z,26.53
2022-08-07T11:14:45.535Z,27.42
2022-08-07T11:17:01.831Z,27.44
2022-08-07T11:19:50.215Z,26.09
2022-08-07T11:22:44.077Z,27.85
2022-08-07T11:25:42.560Z,28.49
2022-08-07T11:28:21.305Z,29.46
2022-08-07T11:30:51.296Z,30.79
2022-08-07T11:34:00.051Z,31.31
2022-08-07T11:36:49.628Z,32.01
2022-08-07T11:40:00.156Z,33.15
2022-08-07T11:42:54.376Z,31.32
2022-08-07T11:45:35.396Z,30.32
2022-08-07T11:48:30.991Z,31.13
2022-08-07T11:51:41.733Z,29.38
2022-08-07T11:54:31.506Z,29.31
2022-08-07T11:57:59.988Z,31.01
2022-08-07T12:00:28.322Z,29.93
2022-08-07T12:03:41.441Z,31.32
2022-08-07T12:06:39.009Z,32.28
2022-08-07T12:09:16.469Z,32.56
2022-08-07T12:12:12.432Z,33.12
2022-08-07T12:14:55.587Z,33.36
2022-08-07T12:17:33.767Z,34.46
2022-08-07T12:20:12.843Z,35.03
2022-08-07T12:23:08.984Z,36.33
2022-08-07T12:26:23.485Z,34.40
2022-08-07T12:29:07.182Z,33.99
2022-08-07T12:31:53.079Z,33.20
2022-08-07T12:34:34.553Z,31.67
2022-08-07T12:37:08.787Z,31.57
2022-08-07T12:39:51.275Z,31.25
2022-08-07T12:42:28.131Z,32.64
2022-08-07T12:44:58.066Z,31.56
2022-08-07T12:47:52.182Z,31.91
2022-08-07T12:50:49.314Z,31.65
2022-08-07T12:53:22.518Z,29.93
2022-08-07T12:56:05.717Z,26.84
2022-08-07T12:58:40.058Z,26.81
2022-08-07T13:01:19.515Z,25.37
2022-08-07T13:04:18.933Z,25.42
2022-08-07T13:08:11.547Z,23.67
2022-08-07T13:10:39.744Z,24.67
2022-08-07T13:13:48.017Z,26.36
2022-08-07T13:16:07.453Z,25.73
2022-08-07T13:18:44.645Z,24.66
2022-08-07T13:21:50.260Z,25.14
2022-08-07T13:24:52.398Z,24.16
2022-08-07T13:28:05.570Z,23.18
2022-08-07T13:30:19.303Z,22.43
2022-08-07T13:34:14.767Z,22.95
2022-08-07T13:36:35.372Z,23.74
2022-08-07T13:39:49.004Z,23.37
2022-08-07T13:42:10.500Z,24.24
2022-08-07T13:44:39.492Z,23.63
2022-08-07T13:47:10.589Z,23.99
2022-08-07T13:50:33.799Z,25.08
2022-08-07T13:52:41.000Z,26.84
2022-08-07T13:55:26.405Z,27.80
2022-08-07T13:58:27.632Z,27.60
2022-08-07T14:01:00.941Z,27.01
2022-08-07T14:04:09.617Z,25.91
2022-08-07T14:06:36.978Z,25.96
2022-08-07T14:09:07.284Z,24.97
2022-08-07T14:11:53.567Z,25.58
2022-08-07T14:14:33.280Z,27.24
2022-08-07T14:17:13.023Z,26.40
2022-08-07T14:20:40.778Z,25.33
2022-08-07T14:22:48.564Z,26.27
2022-08-07T14:25:16.275Z,26.91
2022-08-07T14:28:10.309Z,27.49
2022-08-07T14:30:40.743Z,28.62
2022-08-07T14:33:09.198Z,29.22
2022-08-07T14:35:44.852Z,30.63
2022-08-07T14:38:30.551Z,30.97
2022-08-07T14:44:09.941Z,30.27
2022-08-07T14:46:51.773Z,28.19
2022-08-07T14:49:57.479Z,28.60
2022-08-07T14:55:11.144Z,28.62
2022-08-07T14:57:54.590Z,28.19
2022-08-07T15:00:36.555Z,28.62
2022-08-07T15:03:17.466Z,27.57
2022-08-07T15:05:55.234Z,27.49
2022-08-07T15:08:34.893Z,28.45
2022-08-07T15:11:18.275Z,28.25
2022-08-07T15:14:10.182Z,27.84
2022-08-07T15:16:54.934Z,28.17
2022-08-07T15:20:31.468Z,28.60
2022-08-07T15:22:29.266Z,29.24
2022-08-07T15:28:32.995Z,30.53
2022-08-07T15:31:05.218Z,31.48
2022-08-07T15:39:12.403Z,31.92
2022-08-07T15:44:52.022Z,32.55
2022-08-07T15:48:01.382Z,33.26
2022-08-07T15:50:37.741Z,33.81
2022-08-07T15:53:14.937Z,34.01
2022-08-07T15:55:53.654Z,34.49
2022-08-07T15:58:38.726Z,34.64
2022-08-07T16:01:12.391Z,35.34
2022-08-07T16:03:46.638Z,35.56
2022-08-07T16:06:14.990Z,35.57
2022-08-07T16:08:45.783Z,35.76
2022-08-07T16:11:42.249Z,35.39
2022-08-07T16:14:19.288Z,35.05
2022-08-07T16:18:02.062Z,35.23
2022-08-07T16:20:33.318Z,34.87
2022-08-07T16:23:54.530Z,34.76
2022-08-07T16:26:30.722Z,35.07
2022-08-07T16:30:11.879Z,34.53
2022-08-07T16:32:25.470Z,34.92
2022-08-07T16:35:52.385Z,35.27
2022-08-07T16:38:29.582Z,35.87
2022-08-07T16:41:15.710Z,36.17
2022-08-07T16:45:04.045Z,36.82
2022-08-07T16:47:56.621Z,37.62
2022-08-07T16:51:07.368Z,37.91
2022-08-07T16:54:02.639Z,37.33
2022-08-07T16:57:01.365Z,38.11
2022-08-07T16:59:46.962Z,37.92
2022-08-07T17:02:53.564Z,37.56
2022-08-07T17:06:29.001Z,37.89
2022-08-07T17:08:51.238Z,38.17
2022-08-07T17:12:01.528Z,38.30
2022-08-07T17:14:31.013Z,38.90
2022-08-07T17:17:00.990Z,39.05
2022-08-07T17:20:02.179Z,38.20
2022-08-07T17:22:38.824Z,38.77
2022-08-07T17:25:20.188Z,39.15
2022-08-07T17:28:17.685Z,39.67
2022-08-07T17:31:00.736Z,40.76
2022-08-07T17:34:15.514Z,40.70
2022-08-07T17:36:57.856Z,40.41
2022-08-07T17:39:58.834Z,40.35
2022-08-07T17:42:35.588Z,40.94
2022-08-07T17:45:27.393Z,41.40
2022-08-07T17:48:02.613Z,41.86
2022-08-07T17:50:42.344Z,42.17
2022-08-07T17:53:55.647Z,42.35
2022-08-07T17:56:25.931Z,41.93
2022-08-07T17:58:56.867Z,42.26
2022-08-07T18:01:37.417Z,42.12
2022-08-07T18:04:30.988Z,42.01
2022-08-07T18:07:28.463Z,42.00
2022-08-07T18:12:07.027Z,42.74
2022-08-07T18:13:40.670Z,43.30
2022-08-07T18:16:13.606Z,43.13
2022-08-07T18:21:12.716Z,43.59
2022-08-07T18:22:26.235Z,43.77
2022-08-07T18:25:18.797Z,43.71
2022-08-07T18:27:58.053Z,43.89
2022-08-07T18:30:36.872Z,44.13
2022-08-07T18:33:22.253Z,44.46
2022-08-07T18:36:33.028Z,45.00
2022-08-07T18:40:05.067Z,45.49
2022-08-07T18:42:29.208Z,45.03
2022-08-07T18:45:44.818Z,45.28
2022-08-07T18:48:00.700Z,46.00
2022-08-07T18:50:45.671Z,46.21
2022-08-07T18:53:43.304Z,46.31
2022-08-07T18:56:58.283Z,46.13
2022-08-07T18:59:47.782Z,46.28
2022-08-07T19:02:51.301Z,46.78
2022-08-07T19:06:03.992Z,46.68
2022-08-07T19:08:33.986Z,47.01
2022-08-07T19:11:35.983Z,47.12
2022-08-07T19:14:16.897Z,47.41
2022-08-07T19:17:05.612Z,47.43
2022-08-07T19:19:44.163Z,47.31
2022-08-07T19:22:40.358Z,47.72
2022-08-07T19:26:23.663Z,47.94
2022-08-07T19:28:29.855Z,48.74
2022-08-07T19:31:41.499Z,48.06
2022-08-07T19:34:02.532Z,47.83
2022-08-07T19:36:34.360Z,47.52
2022-08-07T19:39:02.104Z,48.11
2022-08-07T19:42:05.750Z,47.78
2022-08-07T19:44:37.940Z,48.06
2022-08-07T19:47:11.764Z,48.05
2022-08-07T19:49:57.581Z,48.28
2022-08-07T19:52:28.055Z,47.98
2022-08-07T19:54:57.252Z,49.02
2022-08-07T19:58:00.478Z,48.78
2022-08-07T20:00:28.925Z,48.09
2022-08-07T20:03:35.646Z,47.93
2022-08-07T20:06:01.136Z,48.14
2022-08-07T20:08:31.765Z,48.07
2022-08-07T20:11:04.017Z,48.21
2022-08-07T20:13:49.806Z,48.34
2022-08-07T20:16:35.059Z,47.88
2022-08-07T20:19:05.844Z,48.43
2022-08-07T20:21:41.593Z,49.32
2022-08-07T20:24:18.568Z,49.13
2022-08-07T20:26:52.166Z,50.14
2022-08-07T20:29:49.574Z,50.58
2022-08-07T20:32:22.280Z,50.38
2022-08-07T20:34:55.954Z,50.79
2022-08-07T20:37:34.124Z,51.39
2022-08-07T20:40:33.422Z,50.97
2022-08-07T20:42:57.231Z,50.95
2022-08-07T20:45:33.807Z,51.29
2022-08-07T20:48:28.541Z,52.19
2022-08-07T20:51:00.282Z,52.60
2022-08-07T20:54:03.370Z,52.74
2022-08-07T20:56:16.528Z,53.13
2022-08-07T20:58:50.223Z,53.11
2022-08-07T21:01:20.754Z,53.03
2022-08-07T21:04:19.437Z,53.25
2022-08-07T21:06:53.170Z,53.85
2022-08-07T21:09:24.254Z,53.74
2022-08-07T21:11:57.047Z,53.67
2022-08-07T21:14:33.480Z,54.10
2022-08-07T21:18:00.903Z,54.55
2022-08-07T21:20:04.608Z,54.90
2022-08-07T21:22:39.479Z,54.95
2022-08-07T21:25:20.853Z,55.65
2022-08-07T21:28:13.695Z,56.47
2022-08-07T21:30:47.232Z,56.19
2022-08-07T21:33:41.139Z,56.73
2022-08-07T21:36:31.916Z,55.71
2022-08-07T21:39:45.494Z,56.50
2022-08-07T21:42:48.599Z,56.65
2022-08-07T21:46:08.265Z,57.19
2022-08-07T21:48:38.476Z,57.44
2022-08-07T21:51:31.990Z,57.70
2022-08-07T21:54:35.923Z,58.00
2022-08-07T21:57:51.959Z,57.62
2022-08-07T22:00:25.146Z,58.52
2022-08-07T22:03:05.604Z,58.63
2022-08-07T22:05:46.017Z,58.88
2022-08-07T22:08:19.900Z,57.87
2022-08-07T22:10:54.726Z,57.97
2022-08-07T22:13:51.261Z,58.49
2022-08-07T22:16:38.482Z,59.04
2022-08-07T22:19:42.314Z,58.48
2022-08-07T22:22:20.767Z,58.87
2022-08-07T22:25:08.190Z,58.46
2022-08-07T22:28:20.103Z,59.06
2022-08-07T22:30:58.541Z,59.04
2022-08-07T22:33:53.002Z,58.36
2022-08-07T22:36:42.708Z,58.70
2022-08-07T22:39:23.407Z,58.98
2022-08-07T22:42:03.680Z,58.78
2022-08-07T22:44:59.017Z,59.30
2022-08-07T22:47:55.273Z,60.40
2022-08-07T22:50:59.302Z,61.38
2022-08-07T22:54:05.503Z,61.43
2022-08-07T22:56:46.088Z,61.74
2022-08-07T22:59:52.055Z,62.48
2022-08-07T23:02:43.596Z,62.53
2022-08-07T23:06:10.026Z,62.58
2022-08-07T23:08:47.820Z,62.80
2022-08-07T23:11:28.038Z,63.41
2022-08-07T23:14:17.344Z,63.43
2022-08-07T23:16:55.936Z,63.06
2022-08-07T23:20:02.844Z,63.17
2022-08-07T23:22:42.521Z,64.53
2022-08-07T23:25:36.929Z,63.65
2022-08-07T23:28:22.287Z,63.94
2022-08-07T23:31:11.262Z,63.76
2022-08-07T23:34:35.434Z,62.96
2022-08-07T23:37:20.437Z,63.05
2022-08-07T23:40:10.489Z,63.69
2022-08-07T23:42:57.653Z,64.81
2022-08-07T23:46:01.291Z,64.73
2022-08-07T23:48:27.369Z,65.52
2022-08-07T23:52:55.936Z,65.82
2022-08-07T23:54:04.030Z,66.09
2022-08-07T23:56:54.434Z,65.92
